Time;durP1;ratioP1;P1;durP2;ratioP2;P2;SDS_P1;SDS_P2;PMS_P1;PMS_P2;Temp;Humidity;BMP_temperature;BMP_pressure;BME280_temperature;BME280_humidity;BME280_pressure;Samples;Min_cycle;Max_cycle;Signal;HPM_P1;HPM_P2
2021/04/22 00:00:52;;;;;;;15.05;9.35;;;9.40;91.70;;;;;;5051921;28;20472;-70
2021/04/22 00:03:18;;;;;;;12.63;9.15;;;9.10;91.80;;;;;;5051949;28;20025;-71
2021/04/22 00:05:44;;;;;;;19.83;9.40;;;9.00;92.40;;;;;;5051937;28;20044;-70
2021/04/22 00:08:12;;;;;;;13.52;9.20;;;9.00;93.70;;;;;;5050831;28;20059;-71
2021/04/22 00:10:48;;;;;;;12.10;9.27;;;9.10;93.00;;;;;;5051821;28;20017;-70
2021/04/22 00:13:17;;;;;;;12.90;8.85;;;9.00;93.30;;;;;;5050706;28;20076;-71
2021/04/22 00:15:43;;;;;;;10.82;8.38;;;9.00;93.20;;;;;;5050461;28;20036;-70
2021/04/22 00:18:10;;;;;;;15.30;8.98;;;8.90;93.80;;;;;;5050644;28;20392;-71
2021/04/22 00:20:36;;;;;;;11.32;8.00;;;8.90;94.30;;;;;;5051663;28;20484;-71
2021/04/22 00:23:07;;;;;;;12.38;8.55;;;9.00;94.30;;;;;;5051662;28;20112;-71
2021/04/22 00:25:33;;;;;;;11.53;9.27;;;9.10;93.70;;;;;;5050447;28;20131;-71
2021/04/22 00:28:01;;;;;;;14.05;9.45;;;9.20;93.80;;;;;;5051631;28;20620;-71
2021/04/22 00:30:27;;;;;;;11.95;9.15;;;9.30;93.30;;;;;;5051652;28;20029;-71
2021/04/22 00:32:53;;;;;;;10.82;8.35;;;9.30;93.20;;;;;;5050552;28;20025;-70
2021/04/22 00:35:19;;;;;;;14.52;9.50;;;9.20;93.50;;;;;;5051605;28;20391;-71
2021/04/22 00:37:46;;;;;;;14.27;9.90;;;9.40;93.90;;;;;;5051655;28;20029;-70
2021/04/22 00:40:16;;;;;;;14.30;8.93;;;9.60;92.80;;;;;;5051641;28;20060;-71
2021/04/22 00:42:42;;;;;;;13.13;9.95;;;9.60;92.30;;;;;;5051471;28;20027;-71
2021/04/22 00:45:08;;;;;;;13.55;9.65;;;9.60;92.00;;;;;;5051570;28;20017;-70
2021/04/22 00:47:36;;;;;;;14.82;9.90;;;9.60;92.30;;;;;;5051505;28;20017;-70
2021/04/22 00:50:06;;;;;;;12.93;9.32;;;9.60;92.00;;;;;;5050282;28;20108;-71
2021/04/22 00:52:32;;;;;;;13.55;9.93;;;9.70;91.60;;;;;;5051385;28;20478;-71
2021/04/22 00:54:58;;;;;;;15.85;9.60;;;9.60;92.00;;;;;;5052275;28;20105;-71
2021/04/22 00:57:23;;;;;;;16.15;9.65;;;9.80;92.60;;;;;;5054995;28;20411;-71
2021/04/22 00:59:49;;;;;;;15.48;9.90;;;9.50;91.70;;;;;;5055108;28;20037;-71
2021/04/22 01:02:16;;;;;;;12.63;9.73;;;9.20;93.20;;;;;;5054888;28;20025;-71
2021/04/22 01:04:46;;;;;;;16.08;9.30;;;9.30;93.90;;;;;;5055141;28;20018;-71
2021/04/22 01:07:13;;;;;;;11.82;8.52;;;9.40;93.50;;;;;;5054935;28;20021;-71
2021/04/22 01:09:39;;;;;;;18.20;9.02;;;9.10;94.00;;;;;;5037000;28;20043;-71
2021/04/22 01:12:06;;;;;;;14.70;10.25;;;9.30;94.70;;;;;;5053575;28;20583;-71
2021/04/22 01:14:32;;;;;;;13.95;9.65;;;9.30;93.60;;;;;;5054840;28;20021;-71
2021/04/22 01:16:58;;;;;;;14.50;9.98;;;9.30;93.80;;;;;;5054805;28;20075;-70
2021/04/22 01:19:24;;;;;;;11.43;9.00;;;9.10;93.40;;;;;;5054733;28;20036;-71
2021/04/22 01:21:53;;;;;;;12.85;8.23;;;9.20;95.00;;;;;;5053223;28;20033;-71
2021/04/22 01:24:19;;;;;;;13.18;8.55;;;9.20;93.70;;;;;;5053368;28;20484;-70
2021/04/22 01:26:45;;;;;;;12.35;8.23;;;9.00;94.10;;;;;;5053157;28;20021;-71
2021/04/22 01:29:11;;;;;;;18.40;8.85;;;8.90;94.70;;;;;;5054514;28;20067;-71
2021/04/22 01:31:37;;;;;;;13.30;8.43;;;8.90;94.80;;;;;;5053128;28;20025;-71
2021/04/22 01:34:08;;;;;;;12.73;8.52;;;9.00;94.60;;;;;;5054412;28;20385;-72
2021/04/22 01:36:39;;;;;;;10.85;7.10;;;9.00;94.30;;;;;;5054371;28;20427;-71
2021/04/22 01:39:07;;;;;;;15.77;8.77;;;9.00;95.10;;;;;;5054372;28;20385;-71
2021/04/22 01:41:34;;;;;;;12.75;7.63;;;8.70;94.90;;;;;;5054099;28;20028;-71
2021/04/22 01:44:00;;;;;;;16.48;8.73;;;8.40;95.60;;;;;;5052966;28;20128;-71
2021/04/22 01:46:26;;;;;;;10.90;8.20;;;8.20;96.60;;;;;;5054140;28;20500;-71
2021/04/22 01:48:52;;;;;;;16.25;8.27;;;8.30;96.80;;;;;;5054080;28;20025;-71
2021/04/22 01:51:19;;;;;;;12.95;8.20;;;8.30;96.40;;;;;;5052812;28;20051;-71
2021/04/22 01:53:45;;;;;;;14.57;8.43;;;8.30;96.50;;;;;;5052810;28;20481;-71
2021/04/22 01:56:10;;;;;;;10.68;7.97;;;8.50;97.60;;;;;;5053886;28;20021;-71
2021/04/22 01:58:36;;;;;;;12.20;8.63;;;8.60;96.50;;;;;;5053933;28;20033;-71
2021/04/22 02:01:02;;;;;;;12.20;8.90;;;8.60;95.80;;;;;;5053854;28;20025;-71
2021/04/22 02:03:32;;;;;;;12.27;9.27;;;8.60;96.30;;;;;;5052473;28;20111;-71
2021/04/22 02:05:59;;;;;;;11.13;7.85;;;8.50;97.00;;;;;;5053792;28;20025;-71
2021/04/22 02:08:26;;;;;;;14.23;8.75;;;8.50;96.70;;;;;;5051950;28;20124;-72
2021/04/22 02:10:52;;;;;;;12.20;8.98;;;8.60;97.90;;;;;;5053884;28;20029;-71
2021/04/22 02:13:19;;;;;;;14.75;8.57;;;8.50;97.80;;;;;;5053623;28;20460;-71
2021/04/22 02:15:46;;;;;;;13.02;8.85;;;8.40;97.90;;;;;;5053700;28;20542;-71
2021/04/22 02:18:12;;;;;;;13.68;8.05;;;8.40;97.90;;;;;;5052353;28;20029;-71
2021/04/22 02:20:38;;;;;;;15.38;7.70;;;8.40;97.00;;;;;;5044734;22;20045;-73
2021/04/22 02:23:06;;;;;;;11.38;8.45;;;8.60;96.40;;;;;;5012257;28;20496;-73
2021/04/22 02:25:32;;;;;;;12.75;8.98;;;8.70;97.60;;;;;;5012087;28;20026;-73
2021/04/22 02:27:59;;;;;;;18.20;9.80;;;9.00;98.50;;;;;;5013336;28;20025;-73
2021/04/22 02:30:30;;;;;;;16.67;10.57;;;9.20;99.80;;;;;;5012376;28;20473;-73
2021/04/22 02:32:58;;;;;;;18.00;9.98;;;9.30;98.90;;;;;;5013417;28;20370;-73
2021/04/22 02:35:27;;;;;;;18.10;10.43;;;9.30;99.30;;;;;;5012083;28;20037;-73
2021/04/22 02:37:53;;;;;;;16.15;11.02;;;9.50;98.80;;;;;;5013089;28;20026;-73
2021/04/22 02:40:23;;;;;;;16.58;10.68;;;9.40;99.80;;;;;;5011980;28;20485;-73
2021/04/22 02:42:49;;;;;;;22.00;11.50;;;9.50;99.90;;;;;;5028309;28;20026;-73
2021/04/22 02:45:18;;;;;;;14.77;10.48;;;9.70;99.90;;;;;;5013153;28;20080;-73
2021/04/22 02:47:44;;;;;;;15.65;11.80;;;9.60;99.90;;;;;;5011915;28;20030;-73
2021/04/22 02:50:13;;;;;;;20.63;11.48;;;9.40;99.90;;;;;;5013185;28;20110;-73
2021/04/22 02:52:39;;;;;;;21.20;13.50;;;9.40;99.90;;;;;;5013091;28;20045;-73
2021/04/22 02:55:06;;;;;;;16.63;12.80;;;9.40;99.90;;;;;;5012956;28;20030;-73
2021/04/22 02:57:32;;;;;;;16.48;12.18;;;9.50;99.90;;;;;;5011673;28;20482;-73
2021/04/22 02:59:58;;;;;;;18.10;11.85;;;9.30;99.90;;;;;;5013107;28;20421;-73
2021/04/22 03:02:24;;;;;;;22.35;13.48;;;9.20;99.90;;;;;;5012770;28;20075;-73
2021/04/22 03:04:50;;;;;;;19.80;13.10;;;9.00;99.90;;;;;;5012830;28;20080;-73
2021/04/22 03:07:15;;;;;;;19.92;14.45;;;8.50;99.90;;;;;;5011344;28;20026;-73
2021/04/22 03:09:41;;;;;;;23.90;14.63;;;8.10;99.90;;;;;;5011552;28;20026;-73
2021/04/22 03:12:08;;;;;;;17.50;12.55;;;8.00;99.90;;;;;;5012789;28;20022;-73
2021/04/22 03:14:34;;;;;;;23.73;13.15;;;7.90;99.90;;;;;;5011709;28;20088;-73
2021/04/22 03:17:00;;;;;;;19.40;13.80;;;8.00;99.90;;;;;;5012952;28;20022;-73
2021/04/22 03:19:26;;;;;;;23.13;13.52;;;8.00;99.90;;;;;;5010271;28;20033;-73
2021/04/22 03:21:51;;;;;;;22.27;12.85;;;8.10;99.90;;;;;;5012624;28;20440;-73
2021/04/22 03:24:17;;;;;;;18.85;12.57;;;8.10;99.90;;;;;;5011104;28;20382;-73
2021/04/22 03:26:43;;;;;;;19.15;13.23;;;8.30;99.90;;;;;;5011264;28;20021;-73
2021/04/22 03:29:08;;;;;;;18.15;13.15;;;8.50;99.90;;;;;;5012536;28;20029;-73
2021/04/22 03:31:34;;;;;;;19.02;11.95;;;8.40;99.90;;;;;;5012579;28;20025;-73
2021/04/22 03:34:00;;;;;;;17.55;12.40;;;8.40;99.90;;;;;;5012207;28;20061;-73
2021/04/22 03:36:26;;;;;;;21.83;13.77;;;8.50;99.90;;;;;;5011020;28;20025;-73
2021/04/22 03:38:54;;;;;;;18.67;12.32;;;8.40;99.90;;;;;;5012501;28;20024;-73
2021/04/22 03:41:20;;;;;;;19.25;13.35;;;8.30;99.90;;;;;;5012330;28;20428;-73
2021/04/22 03:43:46;;;;;;;21.88;13.38;;;8.20;99.90;;;;;;5010959;28;20059;-73
2021/04/22 03:46:12;;;;;;;20.92;13.77;;;8.10;99.90;;;;;;5012603;28;20022;-73
2021/04/22 03:48:38;;;;;;;23.20;12.95;;;8.00;99.90;;;;;;5012126;28;20030;-73
2021/04/22 03:51:04;;;;;;;22.02;12.73;;;7.90;99.90;;;;;;5012246;28;20053;-73
2021/04/22 03:53:29;;;;;;;17.88;12.07;;;7.80;99.90;;;;;;5012149;28;20033;-73
2021/04/22 03:55:55;;;;;;;18.95;11.48;;;7.80;99.90;;;;;;5012212;28;20471;-73
2021/04/22 03:58:21;;;;;;;20.23;12.60;;;7.50;99.90;;;;;;5010985;28;20033;-73
2021/04/22 04:00:47;;;;;;;21.38;13.73;;;7.50;99.90;;;;;;5012040;28;20485;-73
2021/04/22 04:03:12;;;;;;;20.70;13.18;;;7.20;99.90;;;;;;5012025;28;20104;-73
2021/04/22 04:05:38;;;;;;;18.95;12.75;;;7.10;99.90;;;;;;5011947;28;20088;-73
2021/04/22 04:08:04;;;;;;;23.00;13.10;;;7.20;99.90;;;;;;5010836;28;20440;-73
2021/04/22 04:10:30;;;;;;;22.75;13.07;;;7.10;99.90;;;;;;5012072;28;20389;-73
2021/04/22 04:12:56;;;;;;;18.52;13.18;;;7.30;99.90;;;;;;4994483;28;20022;-73
2021/04/22 04:15:22;;;;;;;20.58;13.85;;;7.40;99.90;;;;;;5011921;28;20100;-73
2021/04/22 04:17:48;;;;;;;17.83;13.55;;;7.40;99.90;;;;;;5011800;28;20034;-73
2021/04/22 04:20:14;;;;;;;21.75;14.55;;;7.60;99.90;;;;;;5027083;28;20096;-73
2021/04/22 04:22:41;;;;;;;24.48;14.40;;;7.60;99.90;;;;;;5010412;28;20121;-73
2021/04/22 04:25:09;;;;;;;24.38;14.52;;;7.70;99.90;;;;;;5010687;28;20053;-72
2021/04/22 04:27:35;;;;;;;21.15;15.25;;;7.70;99.90;;;;;;5011696;28;20037;-72
2021/04/22 04:30:01;;;;;;;23.55;14.25;;;7.70;99.90;;;;;;5012617;28;20075;-73
2021/04/22 04:32:27;;;;;;;22.42;15.98;;;7.70;99.90;;;;;;5015688;28;20026;-73
2021/04/22 04:34:53;;;;;;;23.77;15.75;;;7.60;99.90;;;;;;5015330;28;20106;-73
2021/04/22 04:37:19;;;;;;;21.55;15.35;;;7.50;99.90;;;;;;5015433;28;20101;-73
2021/04/22 04:39:45;;;;;;;24.05;16.10;;;7.50;99.90;;;;;;5015321;28;20037;-73
2021/04/22 04:42:10;;;;;;;23.25;14.93;;;7.50;99.90;;;;;;5015434;28;20026;-72
2021/04/22 04:44:36;;;;;;;27.30;14.82;;;7.50;99.90;;;;;;5015597;28;20034;-72
2021/04/22 04:47:02;;;;;;;29.83;17.55;;;7.40;99.90;;;;;;5015044;28;20100;-73
2021/04/22 04:49:28;;;;;;;26.90;15.23;;;7.50;99.90;;;;;;5015276;28;20116;-73
2021/04/22 04:51:54;;;;;;;22.35;16.67;;;7.40;99.90;;;;;;5015247;28;20057;-73
2021/04/22 04:54:20;;;;;;;23.75;14.45;;;7.50;99.90;;;;;;5013757;28;20112;-73
2021/04/22 04:56:46;;;;;;;28.45;15.73;;;7.40;99.90;;;;;;5015098;28;20034;-73
2021/04/22 04:59:12;;;;;;;22.52;14.07;;;7.50;99.90;;;;;;5015063;28;20022;-73
2021/04/22 05:01:37;;;;;;;18.67;13.23;;;7.50;99.90;;;;;;5015325;28;20022;-73
2021/04/22 05:04:04;;;;;;;26.00;15.90;;;7.60;99.90;;;;;;5013732;28;20029;-73
2021/04/22 05:06:30;;;;;;;27.30;16.17;;;7.50;99.90;;;;;;5013715;28;20041;-73
2021/04/22 05:08:55;;;;;;;21.63;15.45;;;7.60;99.90;;;;;;5013556;28;20018;-74
2021/04/22 05:11:21;;;;;;;24.08;15.15;;;7.60;99.90;;;;;;5014979;28;20026;-73
2021/04/22 05:13:47;;;;;;;20.05;14.55;;;7.60;99.90;;;;;;5014828;28;20034;-73
2021/04/22 05:16:15;;;;;;;20.42;12.50;;;7.70;99.90;;;;;;5014770;28;20021;-73
2021/04/22 05:18:41;;;;;;;16.42;11.73;;;7.80;99.90;;;;;;5014634;28;20078;-73
2021/04/22 05:21:07;;;;;;;17.65;12.18;;;7.80;99.90;;;;;;5013414;28;20042;-73
2021/04/22 05:23:32;;;;;;;17.17;11.05;;;7.50;99.90;;;;;;5014521;28;20366;-73
2021/04/22 05:25:58;;;;;;;21.40;11.10;;;7.40;99.90;;;;;;5013334;28;20109;-73
2021/04/22 05:28:24;;;;;;;15.25;10.70;;;7.50;99.90;;;;;;5014465;28;20026;-73
2021/04/22 05:30:50;;;;;;;14.82;10.45;;;7.60;99.90;;;;;;5014653;28;20030;-73
2021/04/22 05:33:16;;;;;;;16.48;10.77;;;7.70;99.90;;;;;;5013028;28;20028;-73
2021/04/22 05:35:43;;;;;;;14.95;10.45;;;7.80;99.90;;;;;;5013917;28;20064;-74
2021/04/22 05:38:09;;;;;;;16.40;11.10;;;8.00;99.90;;;;;;5014386;28;20427;-73
2021/04/22 05:40:36;;;;;;;18.75;11.65;;;8.20;99.90;;;;;;5013972;28;20057;-73
2021/04/22 05:43:02;;;;;;;15.70;11.48;;;8.30;99.90;;;;;;5013317;28;20038;-73
2021/04/22 05:45:28;;;;;;;17.63;12.10;;;8.00;99.90;;;;;;5014063;28;20026;-74
2021/04/22 05:47:54;;;;;;;23.40;12.85;;;8.00;99.90;;;;;;5012866;28;20313;-73
2021/04/22 05:50:22;;;;;;;19.50;12.02;;;8.10;99.90;;;;;;5013924;28;20446;-73
2021/04/22 05:52:48;;;;;;;20.75;12.15;;;8.10;99.90;;;;;;5014006;28;20037;-73
2021/04/22 05:55:14;;;;;;;15.40;11.32;;;8.10;99.90;;;;;;5013814;28;20026;-73
2021/04/22 05:57:41;;;;;;;16.63;11.88;;;8.20;99.90;;;;;;4996150;28;20068;-73
2021/04/22 06:00:10;;;;;;;21.13;11.45;;;8.30;99.90;;;;;;5012564;28;20117;-73
2021/04/22 06:02:36;;;;;;;22.00;11.40;;;8.20;99.90;;;;;;5010841;28;20033;-73
2021/04/22 06:05:02;;;;;;;16.10;11.50;;;8.10;99.90;;;;;;5009074;28;20022;-73
2021/04/22 06:07:28;;;;;;;16.80;11.55;;;8.10;99.90;;;;;;5004030;28;20466;-73
2021/04/22 06:09:53;;;;;;;18.88;12.88;;;8.10;99.90;;;;;;4994395;28;20030;-73
2021/04/22 06:12:19;;;;;;;16.90;11.85;;;8.10;99.90;;;;;;5007294;28;20030;-73
2021/04/22 06:14:45;;;;;;;18.90;13.18;;;8.30;99.90;;;;;;5013574;28;20482;-73
2021/04/22 06:17:11;;;;;;;18.35;12.75;;;8.40;99.90;;;;;;5013277;28;20030;-73
2021/04/22 06:19:36;;;;;;;18.00;12.25;;;8.50;99.90;;;;;;5010397;28;20065;-73
2021/04/22 06:22:02;;;;;;;19.70;13.23;;;8.40;99.90;;;;;;4993971;28;20054;-73
2021/04/22 06:24:29;;;;;;;20.70;13.88;;;8.40;99.90;;;;;;4994272;28;20033;-73
2021/04/22 06:26:55;;;;;;;19.02;13.15;;;8.40;99.90;;;;;;4993704;28;20019;-73
2021/04/22 06:29:21;;;;;;;28.42;15.55;;;8.30;99.90;;;;;;4993816;28;20023;-73
2021/04/22 06:31:48;;;;;;;21.88;13.93;;;8.40;99.90;;;;;;4993499;28;20085;-73
2021/04/22 06:34:14;;;;;;;20.75;13.38;;;8.60;99.90;;;;;;4992328;28;20050;-73
2021/04/22 06:36:41;;;;;;;22.42;15.13;;;8.80;99.90;;;;;;4996366;28;20022;-73
2021/04/22 06:39:08;;;;;;;18.40;13.75;;;8.90;99.90;;;;;;5011976;28;20017;-73
2021/04/22 06:41:34;;;;;;;24.75;14.98;;;8.80;99.90;;;;;;5020033;28;20032;-73
2021/04/22 06:44:00;;;;;;;21.63;14.45;;;8.80;99.90;;;;;;5027921;28;20362;-73
2021/04/22 06:46:25;;;;;;;19.10;13.40;;;8.80;99.90;;;;;;4993099;28;20033;-73
2021/04/22 06:48:51;;;;;;;19.40;13.25;;;9.00;99.90;;;;;;5019710;28;20026;-73
2021/04/22 06:51:18;;;;;;;23.77;13.50;;;9.00;99.90;;;;;;5017053;28;20076;-73
2021/04/22 06:53:43;;;;;;;21.15;14.38;;;9.20;99.90;;;;;;5021342;28;20100;-73
2021/04/22 06:56:09;;;;;;;21.35;13.93;;;9.40;99.90;;;;;;5020026;28;20469;-73
2021/04/22 06:58:35;;;;;;;17.83;12.20;;;9.60;99.90;;;;;;5016917;28;20026;-73
2021/04/22 07:01:01;;;;;;;18.27;13.77;;;9.70;99.90;;;;;;5024875;28;20026;-73
2021/04/22 07:03:27;;;;;;;20.65;13.57;;;9.60;99.90;;;;;;5022099;28;20021;-73
2021/04/22 07:05:53;;;;;;;19.27;12.77;;;9.60;99.90;;;;;;5026602;28;20029;-73
2021/04/22 07:08:19;;;;;;;21.60;13.38;;;9.60;99.90;;;;;;5015356;28;20022;-73
2021/04/22 07:10:45;;;;;;;18.52;12.98;;;9.80;99.90;;;;;;5025941;28;20397;-73
2021/04/22 07:13:11;;;;;;;19.80;13.43;;;10.00;99.90;;;;;;5024981;28;20101;-74
2021/04/22 07:15:38;;;;;;;28.65;14.55;;;10.20;99.90;;;;;;5020619;28;20470;-74
2021/04/22 07:18:08;;;;;;;24.05;14.00;;;10.30;99.90;;;;;;5023670;28;20018;-73
2021/04/22 07:20:34;;;;;;;21.33;13.82;;;10.40;99.90;;;;;;5018577;28;20072;-73
2021/04/22 07:23:00;;;;;;;18.58;14.43;;;10.30;99.90;;;;;;5029262;28;20120;-74
2021/04/22 07:25:30;;;;;;;20.67;13.57;;;10.30;99.90;;;;;;5013656;28;20033;-73
2021/04/22 07:27:57;;;;;;;18.20;12.05;;;10.60;99.90;;;;;;5011345;28;20033;-74
2021/04/22 07:30:23;;;;;;;17.35;12.55;;;10.70;99.90;;;;;;5006208;28;20510;-73
2021/04/22 07:32:49;;;;;;;18.13;12.63;;;10.60;99.90;;;;;;5025491;28;20029;-73
2021/04/22 07:35:15;;;;;;;19.10;13.20;;;10.70;99.90;;;;;;5018729;28;20036;-73
2021/04/22 07:37:41;;;;;;;20.27;13.65;;;10.70;99.90;;;;;;5029161;28;20059;-73
2021/04/22 07:40:10;;;;;;;23.45;13.75;;;10.60;99.10;;;;;;5023885;28;20493;-73
2021/04/22 07:42:36;;;;;;;17.90;12.73;;;10.60;98.30;;;;;;5019608;28;20052;-73
2021/04/22 07:45:03;;;;;;;18.75;12.65;;;10.50;99.50;;;;;;5016378;28;20540;-74
2021/04/22 07:47:29;;;;;;;18.92;11.85;;;10.60;99.90;;;;;;5018920;28;20104;-73
2021/04/22 07:49:55;;;;;;;20.70;12.75;;;10.60;99.40;;;;;;5018344;28;20113;-74
2021/04/22 07:52:21;;;;;;;23.50;12.90;;;10.70;99.00;;;;;;5017495;28;20022;-73
2021/04/22 07:54:47;;;;;;;17.17;12.02;;;10.70;97.40;;;;;;5010165;28;20037;-74
2021/04/22 07:57:12;;;;;;;19.25;12.40;;;10.70;97.50;;;;;;5015134;28;20082;-74
2021/04/22 07:59:38;;;;;;;26.38;13.63;;;10.70;98.20;;;;;;5019658;28;20523;-73
2021/04/22 08:02:07;;;;;;;22.48;13.88;;;10.70;98.20;;;;;;5015974;28;20788;-74
2021/04/22 08:04:34;;;;;;;24.10;14.30;;;10.70;98.00;;;;;;5023830;28;20025;-74
2021/04/22 08:07:00;;;;;;;28.48;14.60;;;10.70;98.30;;;;;;5020640;28;20393;-74
2021/04/22 08:09:25;;;;;;;19.25;12.27;;;10.70;98.40;;;;;;5026344;28;20124;-74
2021/04/22 08:11:51;;;;;;;27.90;13.52;;;10.70;98.90;;;;;;5029507;28;20029;-74
2021/04/22 08:14:17;;;;;;;23.33;13.23;;;10.90;99.90;;;;;;5025162;28;20025;-73
2021/04/22 08:16:43;;;;;;;33.13;12.95;;;11.00;98.50;;;;;;5023028;28;20426;-73
2021/04/22 08:19:08;;;;;;;22.88;12.98;;;11.20;98.80;;;;;;5027902;28;20096;-74
2021/04/22 08:21:34;;;;;;;19.38;12.80;;;11.30;96.90;;;;;;5022246;28;20570;-74
2021/04/22 08:24:00;;;;;;;19.27;13.77;;;11.20;96.80;;;;;;5028109;28;20064;-74
2021/04/22 08:26:26;;;;;;;24.13;14.23;;;11.00;98.40;;;;;;5027998;28;20047;-74
2021/04/22 08:28:52;;;;;;;22.42;13.57;;;10.90;99.90;;;;;;5023794;28;20022;-74
2021/04/22 08:31:25;;;;;;;21.10;14.55;;;10.80;99.90;;;;;;5029088;28;20420;-74
2021/04/22 08:33:54;;;;;;;21.17;15.07;;;10.70;99.90;;;;;;5015254;28;20036;-74
2021/04/22 08:36:21;;;;;;;19.88;14.80;;;10.80;99.90;;;;;;5015243;28;20413;-74
2021/04/22 08:38:49;;;;;;;21.42;15.20;;;10.80;99.90;;;;;;5014800;28;20045;-74
2021/04/22 08:41:15;;;;;;;18.08;13.75;;;11.00;99.90;;;;;;5023080;28;20061;-74
2021/04/22 08:43:42;;;;;;;21.10;14.07;;;11.30;99.90;;;;;;5023083;28;20030;-74
2021/04/22 08:46:08;;;;;;;21.00;13.07;;;11.60;99.90;;;;;;5027894;28;20100;-74
2021/04/22 08:48:36;;;;;;;19.23;13.07;;;11.80;99.90;;;;;;5019272;28;20129;-74
2021/04/22 08:51:03;;;;;;;20.45;14.50;;;11.90;98.60;;;;;;5018395;28;20022;-74
2021/04/22 08:53:33;;;;;;;16.38;12.32;;;11.90;97.20;;;;;;5017391;28;20061;-74
2021/04/22 08:55:59;;;;;;;24.42;13.73;;;12.00;95.20;;;;;;5022872;28;20124;-74
2021/04/22 08:58:26;;;;;;;18.35;12.90;;;11.70;91.50;;;;;;5020811;28;20120;-74
2021/04/22 09:00:59;;;;;;;16.35;11.02;;;11.60;92.20;;;;;;5023427;28;20498;-74
2021/04/22 09:03:25;;;;;;;16.30;12.10;;;11.60;91.40;;;;;;5024077;28;20520;-74
2021/04/22 09:05:52;;;;;;;21.42;13.02;;;11.70;92.70;;;;;;5020203;28;20018;-74
2021/04/22 09:08:20;;;;;;;26.38;12.35;;;11.90;93.20;;;;;;5032289;28;20048;-74
2021/04/22 09:10:46;;;;;;;21.88;13.52;;;11.80;91.50;;;;;;5020947;28;20075;-74
2021/04/22 09:13:17;;;;;;;23.65;13.15;;;11.60;91.00;;;;;;5027291;28;20026;-73
2021/04/22 09:15:45;;;;;;;17.20;13.00;;;11.60;92.20;;;;;;5013224;28;20095;-74
2021/04/22 09:18:15;;;;;;;16.52;12.05;;;11.60;92.30;;;;;;5025802;28;20152;-74
2021/04/22 09:20:48;;;;;;;18.40;12.38;;;11.50;90.90;;;;;;5026348;28;20044;-74
2021/04/22 09:23:19;;;;;;;21.35;11.80;;;11.60;90.30;;;;;;5028078;28;20021;-73
2021/04/22 09:25:54;;;;;;;20.27;12.82;;;11.70;90.10;;;;;;5028208;28;20453;-74
2021/04/22 09:28:21;;;;;;;17.65;12.95;;;12.00;90.00;;;;;;5020055;28;20072;-74
2021/04/22 09:30:47;;;;;;;25.33;13.30;;;12.10;84.50;;;;;;5023132;28;20083;-74
2021/04/22 09:33:22;;;;;;;21.38;13.50;;;12.00;84.80;;;;;;5020801;28;20034;-74
2021/04/22 09:35:48;;;;;;;21.50;12.43;;;12.10;85.60;;;;;;5025416;28;20033;-74
2021/04/22 09:38:15;;;;;;;25.48;12.80;;;12.20;87.10;;;;;;5023021;28;20069;-74
2021/04/22 09:40:44;;;;;;;33.80;14.52;;;12.50;86.60;;;;;;5018757;28;20049;-74
2021/04/22 09:43:15;;;;;;;23.13;12.02;;;12.60;85.70;;;;;;5031998;28;20112;-74
2021/04/22 09:45:48;;;;;;;20.30;12.70;;;12.80;84.40;;;;;;5021619;28;20018;-74
2021/04/22 09:48:20;;;;;;;25.27;14.55;;;12.90;82.20;;;;;;5032506;28;20025;-74
2021/04/22 09:50:46;;;;;;;27.10;14.15;;;12.80;82.00;;;;;;5022907;28;20021;-73
2021/04/22 09:53:14;;;;;;;22.90;13.15;;;12.90;82.60;;;;;;5028065;28;20040;-74
2021/04/22 09:55:40;;;;;;;23.83;13.82;;;13.20;82.30;;;;;;5027380;28;20022;-73
2021/04/22 09:58:06;;;;;;;23.02;13.52;;;13.20;80.70;;;;;;5022649;28;20030;-74
2021/04/22 10:00:33;;;;;;;22.98;13.40;;;13.40;82.20;;;;;;5023109;28;20034;-74
2021/04/22 10:03:11;;;;;;;19.83;14.80;;;13.70;80.30;;;;;;5022761;28;20053;-74
2021/04/22 10:05:41;;;;;;;26.27;14.45;;;13.60;77.60;;;;;;5026561;28;20024;-74
2021/04/22 10:08:08;;;;;;;22.92;14.27;;;13.60;79.20;;;;;;5027801;28;20435;-73
2021/04/22 10:10:36;;;;;;;22.58;14.45;;;13.70;78.60;;;;;;5017463;28;20022;-74
2021/04/22 10:13:10;;;;;;;19.23;13.00;;;13.80;79.10;;;;;;5009468;28;20026;-73
2021/04/22 10:15:37;;;;;;;28.13;13.88;;;14.40;77.50;;;;;;5016653;28;20598;-74
2021/04/22 10:18:06;;;;;;;31.77;14.30;;;14.50;75.10;;;;;;5017620;28;20420;-73
2021/04/22 10:20:35;;;;;;;34.40;16.20;;;14.30;77.20;;;;;;5025974;28;20034;-74
2021/04/22 10:23:03;;;;;;;30.83;14.45;;;14.70;73.70;;;;;;5021262;28;20436;-74
2021/04/22 10:25:32;;;;;;;25.80;14.15;;;15.10;73.10;;;;;;5017982;28;20021;-74
2021/04/22 10:28:03;;;;;;;28.00;15.55;;;15.10;71.00;;;;;;5021281;28;20074;-72
2021/04/22 10:30:29;;;;;;;21.35;15.65;;;15.00;71.20;;;;;;5020252;28;20025;-73
2021/04/22 10:32:54;;;;;;;23.50;15.63;;;14.80;70.90;;;;;;5011805;28;20034;-74
2021/04/22 10:35:23;;;;;;;33.78;15.95;;;14.70;70.20;;;;;;5017276;28;20045;-74
2021/04/22 10:37:52;;;;;;;24.73;15.02;;;14.60;71.10;;;;;;5024942;28;20029;-74
2021/04/22 10:40:25;;;;;;;42.42;15.43;;;14.60;70.90;;;;;;5009223;28;20055;-74
2021/04/22 10:42:55;;;;;;;20.35;16.45;;;14.80;72.40;;;;;;5013334;28;20616;-74
2021/04/22 10:45:22;;;;;;;23.25;14.65;;;14.40;71.90;;;;;;5026686;28;20022;-74
2021/04/22 10:47:48;;;;;;;27.52;15.40;;;13.80;73.60;;;;;;5021696;28;20022;-73
2021/04/22 10:50:23;;;;;;;21.35;16.17;;;13.90;75.50;;;;;;5020764;28;20030;-73
2021/04/22 10:52:51;;;;;;;24.20;16.20;;;13.80;72.70;;;;;;5020962;28;20053;-74
2021/04/22 10:55:26;;;;;;;21.85;15.05;;;13.60;75.50;;;;;;5036115;23;20444;-74
2021/04/22 10:57:54;;;;;;;29.90;16.88;;;14.40;74.70;;;;;;5018163;28;20036;-73
2021/04/22 11:00:23;;;;;;;23.52;15.93;;;14.80;72.00;;;;;;5019851;28;20029;-73
2021/04/22 11:02:52;;;;;;;29.67;16.15;;;14.90;71.30;;;;;;5021616;28;20041;-74
2021/04/22 11:05:27;;;;;;;22.58;17.05;;;14.90;71.30;;;;;;5022861;28;20489;-73
2021/04/22 11:07:55;;;;;;;21.38;16.08;;;14.30;72.50;;;;;;5015807;28;20029;-74
2021/04/22 11:10:22;;;;;;;27.77;16.17;;;14.20;74.80;;;;;;4999158;28;20424;-74
2021/04/22 11:12:48;;;;;;;28.88;17.77;;;14.20;75.60;;;;;;5015382;28;20025;-74
2021/04/22 11:15:19;;;;;;;25.02;17.45;;;13.90;72.90;;;;;;5020252;28;20071;-74
2021/04/22 11:17:45;;;;;;;32.08;18.33;;;13.90;75.60;;;;;;5025019;28;20083;-74
2021/04/22 11:20:17;;;;;;;34.15;19.48;;;13.90;74.90;;;;;;5020258;28;20085;-74
2021/04/22 11:22:45;;;;;;;50.90;23.63;;;13.70;79.60;;;;;;5016852;28;20116;-74
2021/04/22 11:25:18;;;;;;;37.72;23.73;;;12.80;81.70;;;;;;5000550;28;20027;-74
2021/04/22 11:27:49;;;;;;;34.85;23.67;;;12.20;89.70;;;;;;5024783;28;20021;-74
2021/04/22 11:30:35;;;;;;;37.35;23.45;;;12.20;91.20;;;;;;5008575;28;20042;-74
2021/04/22 11:33:01;;;;;;;28.58;21.08;;;12.10;91.70;;;;;;5018753;28;20033;-74
2021/04/22 11:35:30;;;;;;;31.35;20.75;;;11.80;89.80;;;;;;5019224;28;20021;-74
2021/04/22 11:38:05;;;;;;;34.15;21.67;;;11.50;91.40;;;;;;5009811;28;20033;-74
2021/04/22 11:40:39;;;;;;;35.55;24.73;;;11.40;92.40;;;;;;5014033;28;20049;-73
2021/04/22 11:43:05;;;;;;;38.60;23.33;;;11.70;99.10;;;;;;5014691;28;20109;-73
2021/04/22 11:45:33;;;;;;;32.80;22.48;;;12.50;99.90;;;;;;5025318;28;20064;-73
2021/04/22 11:48:01;;;;;;;32.80;22.85;;;12.80;99.90;;;;;;5001108;28;20075;-74
2021/04/22 11:50:40;;;;;;;42.55;24.05;;;13.50;95.70;;;;;;5022037;28;20071;-74
2021/04/22 11:53:07;;;;;;;38.58;27.98;;;13.20;96.80;;;;;;5019270;28;20473;-74
2021/04/22 11:55:38;;;;;;;41.28;25.75;;;13.00;99.90;;;;;;5028858;28;20040;-74
2021/04/22 11:58:11;;;;;;;34.20;26.73;;;12.90;99.90;;;;;;5019676;28;20432;-74
2021/04/22 12:00:47;;;;;;;35.10;25.23;;;12.90;99.90;;;;;;5011016;28;20116;-72
2021/04/22 12:03:30;;;;;;;36.28;25.88;;;13.20;99.90;;;;;;5028652;28;20028;-71
2021/04/22 12:05:58;;;;;;;35.85;25.55;;;13.40;99.90;;;;;;5021260;28;20026;-71
2021/04/22 12:08:50;;;;;;;34.45;26.67;;;13.60;99.90;;;;;;5024728;28;20018;-73
2021/04/22 12:11:22;;;;;;;;;;;13.90;99.90;;;;;;5013137;28;20100;-73
2021/04/22 12:13:49;;;;;;;38.80;28.70;;;14.30;99.90;;;;;;5023394;28;20031;-73
2021/04/22 12:16:16;;;;;;;39.45;30.70;;;14.60;97.30;;;;;;5018222;28;20037;-73
2021/04/22 12:18:46;;;;;;;44.03;32.22;;;14.70;95.30;;;;;;5020307;28;20113;-73
2021/04/22 12:21:12;;;;;;;46.40;34.38;;;14.60;94.50;;;;;;4998234;28;20021;-73
2021/04/22 12:23:43;;;;;;;41.05;30.92;;;14.50;92.40;;;;;;5025282;28;20072;-73
2021/04/22 12:26:19;;;;;;;42.22;31.10;;;14.40;85.60;;;;;;5016081;28;20060;-73
2021/04/22 12:28:52;;;;;;;47.63;32.53;;;14.40;82.20;;;;;;5014854;28;20657;-72
2021/04/22 12:31:26;;;;;;;44.10;33.38;;;14.50;82.90;;;;;;5020052;28;20026;-73
2021/04/22 12:33:53;;;;;;;53.15;34.05;;;14.30;82.90;;;;;;5022035;28;20021;-72
2021/04/22 12:36:20;;;;;;;57.10;35.15;;;14.20;78.10;;;;;;5025193;28;20022;-72